Terminal Aerodrome Forecast
Issued by NWS Charleston, WV

Current Version | Previous Version | Graphics & Text | Print | Product List | Glossary On
Versions: 1 2 3 4 5 6 7 8 9 10 11 12 13 14 15 16 17 18 19 20 21 22 23 24 25
000
FTUS41 KRLX 241505 AAA
TAFBKW
TAF AMD
KBKW 241505Z 2415/2512 12015G27KT P6SM -SHRA OVC012
      TEMPO 2415/2418 4SM -SHRA BR
     FM242200 11013KT P6SM -SHRA OVC008
     FM250200 11011KT P6SM -SHRA OVC008
     FM250800 07007KT 4SM -SHRA OVC004=

USA.gov is the U.S. government's official web portal to all federal, state and local government web resources and services.